Time;durP1;ratioP1;P1;durP2;ratioP2;P2;SDS_P1;SDS_P2;PMS_P1;PMS_P2;Temp;Humidity;BMP_temperature;BMP_pressure;BME280_temperature;BME280_humidity;BME280_pressure;Samples;Min_cycle;Max_cycle;Signal;HPM_P1;HPM_P2
2021/10/18 00:00:24;;;;;;;;;;;6.80;99.90;;;;;;5086246;28;20341;-74
2021/10/18 00:02:51;;;;;;;;;;;6.80;99.90;;;;;;5087704;28;20280;-75
2021/10/18 00:05:17;;;;;;;;;;;6.70;99.90;;;;;;5086064;28;19975;-75
2021/10/18 00:07:44;;;;;;;;;;;6.70;99.90;;;;;;5087545;28;19992;-75
2021/10/18 00:10:11;;;;;;;;;;;6.70;99.90;;;;;;5090545;28;19951;-75
2021/10/18 00:12:39;;;;;;;;;;;6.70;99.90;;;;;;5090298;28;20399;-74
2021/10/18 00:15:07;;;;;;;;;;;6.70;99.90;;;;;;5098713;28;19953;-74
2021/10/18 00:17:34;;;;;;;;;;;6.60;99.90;;;;;;5088879;28;19980;-75
2021/10/18 00:20:01;;;;;;;;;;;6.60;99.90;;;;;;5090505;28;19951;-75
2021/10/18 00:22:27;;;;;;;;;;;6.60;99.90;;;;;;5090827;28;20441;-75
2021/10/18 00:24:54;;;;;;;;;;;6.60;99.90;;;;;;5094709;28;19951;-75
2021/10/18 00:27:21;;;;;;;;;;;6.70;99.90;;;;;;5090982;28;19945;-73
2021/10/18 00:29:49;;;;;;;;;;;6.80;99.90;;;;;;5090098;28;20419;-73
2021/10/18 00:32:15;;;;;;;;;;;6.70;99.90;;;;;;5093442;28;19963;-74
2021/10/18 00:34:42;;;;;;;;;;;6.70;99.90;;;;;;5097928;28;19947;-74
2021/10/18 00:37:08;;;;;;;;;;;6.70;99.90;;;;;;5082716;28;19945;-74
2021/10/18 00:39:35;;;;;;;;;;;6.70;99.90;;;;;;5086331;28;19949;-74
2021/10/18 00:42:02;;;;;;;;;;;6.70;99.90;;;;;;5087131;28;19958;-74
2021/10/18 00:44:29;;;;;;;;;;;6.70;99.90;;;;;;5090345;28;19964;-74
2021/10/18 00:46:57;;;;;;;;;;;6.70;99.90;;;;;;5091367;28;19973;-74
2021/10/18 00:49:23;;;;;;;;;;;6.60;99.90;;;;;;5089359;28;19953;-74
2021/10/18 00:51:50;;;;;;;;;;;6.50;99.90;;;;;;5101087;28;19949;-74
2021/10/18 00:54:17;;;;;;;;;;;6.50;99.90;;;;;;5088658;28;20429;-76
2021/10/18 00:56:44;;;;;;;;;;;6.50;99.90;;;;;;5092038;28;19950;-75
2021/10/18 00:59:10;;;;;;;;;;;6.40;99.90;;;;;;5083084;28;20713;-74
2021/10/18 01:01:37;;;;;;;;;;;6.40;99.90;;;;;;5098503;28;19949;-75
2021/10/18 01:04:05;;;;;;;;;;;6.40;99.90;;;;;;5088820;28;19966;-75
2021/10/18 01:06:32;;;;;;;;;;;6.30;99.90;;;;;;5093200;28;19964;-75
2021/10/18 01:08:59;;;;;;;;;;;6.30;99.90;;;;;;5088000;28;19947;-75
2021/10/18 01:11:25;;;;;;;;;;;6.20;99.90;;;;;;5105994;28;20047;-75
2021/10/18 01:13:52;;;;;;;;;;;6.20;99.90;;;;;;5091856;28;20061;-75
2021/10/18 01:16:19;;;;;;;;;;;6.20;99.90;;;;;;5094792;28;19950;-75
2021/10/18 01:18:45;;;;;;;;;;;6.20;99.90;;;;;;5091012;28;19974;-75
2021/10/18 01:21:13;;;;;;;;;;;6.20;99.90;;;;;;5093072;28;19974;-75
2021/10/18 01:23:40;;;;;;;;;;;6.30;99.90;;;;;;5090158;28;19973;-75
2021/10/18 01:26:07;;;;;;;;;;;6.30;99.90;;;;;;5095960;28;19950;-75
2021/10/18 01:28:33;;;;;;;;;;;6.30;99.90;;;;;;5093821;28;19956;-75
2021/10/18 01:31:00;;;;;;;;;;;6.20;99.90;;;;;;5094285;28;19951;-75
2021/10/18 01:33:26;;;;;;;;;;;6.20;99.90;;;;;;5091546;28;20322;-75
2021/10/18 01:35:53;;;;;;;;;;;6.10;99.90;;;;;;5091552;28;19955;-75
2021/10/18 01:38:21;;;;;;;;;;;6.10;99.90;;;;;;5085014;28;20262;-74
2021/10/18 01:40:48;;;;;;;;;;;6.10;99.90;;;;;;5087808;28;19961;-76
2021/10/18 01:43:14;;;;;;;;;;;6.10;99.90;;;;;;5096193;28;19960;-75
2021/10/18 01:45:41;;;;;;;;;;;6.10;99.90;;;;;;5085677;28;19954;-74
2021/10/18 01:48:08;;;;;;;;;;;6.10;99.90;;;;;;5087296;28;19953;-75
2021/10/18 01:50:34;;;;;;;;;;;6.10;99.90;;;;;;5087468;28;20298;-75
2021/10/18 01:53:01;;;;;;;;;;;6.10;99.90;;;;;;5093381;28;19958;-75
2021/10/18 01:55:29;;;;;;;;;;;6.10;99.90;;;;;;5091473;28;21427;-75
2021/10/18 01:57:56;;;;;;;;;;;6.10;99.90;;;;;;5081286;28;20481;-76
2021/10/18 02:00:23;;;;;;;;;;;6.10;99.90;;;;;;5086761;28;20419;-75
2021/10/18 02:02:49;;;;;;;;;;;6.10;99.90;;;;;;5086271;28;20406;-77
2021/10/18 02:05:17;;;;;;;;;;;6.10;99.90;;;;;;5091598;28;19973;-74
2021/10/18 02:07:43;;;;;;;;;;;6.20;99.90;;;;;;5087193;28;19953;-75
2021/10/18 02:10:11;;;;;;;;;;;6.10;99.90;;;;;;5098343;28;19953;-73
2021/10/18 02:12:39;;;;;;;;;;;6.10;99.90;;;;;;5093574;28;20314;-74
2021/10/18 02:15:06;;;;;;;;;;;6.10;99.90;;;;;;5089526;28;19955;-75
2021/10/18 02:17:32;;;;;;;;;;;6.00;99.90;;;;;;5092803;28;19964;-74
2021/10/18 02:19:59;;;;;;;;;;;5.90;99.90;;;;;;5083551;28;19974;-74
2021/10/18 02:22:25;;;;;;;;;;;5.90;99.90;;;;;;5087866;28;19956;-74
2021/10/18 02:24:52;;;;;;;;;;;5.80;99.90;;;;;;5089859;28;19978;-75
2021/10/18 02:27:19;;;;;;;;;;;5.80;99.90;;;;;;5081806;28;19982;-75
2021/10/18 02:29:47;;;;;;;;;;;5.80;99.90;;;;;;5091619;28;20331;-75
2021/10/18 02:32:13;;;;;;;;;;;5.80;99.90;;;;;;5090444;28;20314;-75
2021/10/18 02:34:40;;;;;;;;;;;5.80;99.90;;;;;;5087786;28;19963;-75
2021/10/18 02:37:07;;;;;;;;;;;5.80;99.90;;;;;;5091033;28;19957;-75
2021/10/18 02:39:34;;;;;;;;;;;5.80;99.90;;;;;;5086157;28;19969;-75
2021/10/18 02:42:00;;;;;;;;;;;5.80;99.90;;;;;;5097803;28;19956;-75
2021/10/18 02:44:27;;;;;;;;;;;5.80;99.90;;;;;;5088037;28;20052;-75
2021/10/18 02:46:55;;;;;;;;;;;5.70;99.90;;;;;;5086659;28;19956;-76
2021/10/18 02:49:22;;;;;;;;;;;5.70;99.90;;;;;;5086956;28;20308;-75
2021/10/18 02:51:48;;;;;;;;;;;5.80;99.90;;;;;;5090174;28;19956;-75
2021/10/18 02:54:15;;;;;;;;;;;5.70;99.90;;;;;;5084828;28;19951;-74
2021/10/18 02:56:42;;;;;;;;;;;5.70;99.90;;;;;;5088846;28;19950;-75
2021/10/18 02:59:09;;;;;;;;;;;5.60;99.90;;;;;;5088284;28;19975;-75
2021/10/18 03:01:35;;;;;;;;;;;5.60;99.90;;;;;;5086989;28;19948;-74
2021/10/18 03:04:03;;;;;;;;;;;5.60;99.90;;;;;;5086753;28;19949;-74
2021/10/18 03:06:30;;;;;;;;;;;5.60;99.90;;;;;;5089999;28;19970;-75
2021/10/18 03:08:57;;;;;;;;;;;5.60;99.90;;;;;;5084564;28;19957;-74
2021/10/18 03:11:23;;;;;;;;;;;5.60;99.90;;;;;;5084588;28;20437;-75
2021/10/18 03:13:50;;;;;;;;;;;5.60;99.90;;;;;;5089250;28;19951;-74
2021/10/18 03:16:16;;;;;;;;;;;5.70;99.90;;;;;;5096842;28;19957;-75
2021/10/18 03:18:43;;;;;;;;;;;5.70;99.90;;;;;;5094888;28;20013;-74
2021/10/18 03:21:11;;;;;;;;;;;5.60;99.90;;;;;;5092933;28;19962;-75
2021/10/18 03:23:38;;;;;;;;;;;5.70;99.90;;;;;;5092029;28;19957;-75
2021/10/18 03:26:04;;;;;;;;;;;5.70;99.90;;;;;;5094262;28;20481;-74
2021/10/18 03:28:31;;;;;;;;;;;5.60;99.90;;;;;;5091677;28;19964;-74
2021/10/18 03:30:58;;;;;;;;;;;5.60;99.90;;;;;;5091513;28;19968;-74
2021/10/18 03:33:25;;;;;;;;;;;5.50;99.90;;;;;;5092022;28;19952;-75
2021/10/18 03:35:52;;;;;;;;;;;5.50;99.90;;;;;;5097492;28;19958;-75
2021/10/18 03:38:19;;;;;;;;;;;5.50;99.90;;;;;;5096730;28;19974;-75
2021/10/18 03:40:46;;;;;;;;;;;5.60;99.90;;;;;;5095804;28;19952;-75
2021/10/18 03:43:13;;;;;;;;;;;5.60;99.90;;;;;;5097606;28;19959;-75
2021/10/18 03:45:39;;;;;;;;;;;5.60;99.90;;;;;;5093491;28;19952;-75
2021/10/18 03:48:06;;;;;;;;;;;5.70;99.90;;;;;;5090953;28;19963;-75
2021/10/18 03:50:33;;;;;;;;;;;5.60;99.90;;;;;;5094530;28;19952;-76
2021/10/18 03:52:59;;;;;;;;;;;5.50;99.90;;;;;;5086552;28;19958;-76
2021/10/18 03:55:27;;;;;;;;;;;5.50;99.90;;;;;;5098211;28;19953;-75
2021/10/18 03:57:54;;;;;;;;;;;5.50;99.90;;;;;;5090886;28;20370;-75
2021/10/18 04:00:21;;;;;;;;;;;5.50;99.90;;;;;;5095017;28;19971;-75
2021/10/18 04:02:48;;;;;;;;;;;5.60;99.90;;;;;;5081005;28;19959;-75
2021/10/18 04:05:14;;;;;;;;;;;5.60;99.90;;;;;;5097448;28;19967;-75
2021/10/18 04:07:45;;;;;;;;;;;5.70;99.90;;;;;;5088313;28;20047;-75
2021/10/18 04:10:12;;;;;;;;;;;5.70;99.90;;;;;;5088908;28;20015;-75
2021/10/18 04:12:40;;;;;;;;;;;5.60;99.90;;;;;;5084281;28;19952;-74
2021/10/18 04:15:07;;;;;;;;;;;5.60;99.90;;;;;;5094276;28;20298;-74
2021/10/18 04:17:34;;;;;;;;;;;5.50;99.90;;;;;;5084291;28;19960;-75
2021/10/18 04:20:01;;;;;;;;;;;5.50;99.90;;;;;;5096525;28;20034;-74
2021/10/18 04:22:27;;;;;;;;;;;5.50;99.90;;;;;;5093743;28;20677;-74
2021/10/18 04:24:54;;;;;;;;;;;5.60;99.90;;;;;;5089501;28;19957;-74
2021/10/18 04:27:20;;;;;;;;;;;5.60;99.90;;;;;;5098494;28;19958;-74
2021/10/18 04:29:48;;;;;;;;;;;5.60;99.90;;;;;;5086671;28;20363;-74
2021/10/18 04:32:15;;;;;;;;;;;5.50;99.90;;;;;;5091506;28;19951;-75
2021/10/18 04:34:42;;;;;;;;;;;5.40;99.90;;;;;;5085147;28;20435;-74
2021/10/18 04:37:09;;;;;;;;;;;5.30;99.90;;;;;;5097208;28;20007;-74
2021/10/18 04:39:36;;;;;;;;;;;5.40;99.90;;;;;;5082565;28;20345;-75
2021/10/18 04:42:02;;;;;;;;;;;5.40;99.90;;;;;;5090517;28;19965;-75
2021/10/18 04:44:29;;;;;;;;;;;5.40;99.90;;;;;;5094457;28;19959;-75
2021/10/18 04:46:57;;;;;;;;;;;5.40;99.90;;;;;;5090328;28;19958;-75
2021/10/18 04:49:24;;;;;;;;;;;5.40;99.90;;;;;;5090875;28;20806;-74
2021/10/18 04:51:50;;;;;;;;;;;5.50;99.90;;;;;;5090303;28;19956;-75
2021/10/18 04:54:17;;;;;;;;;;;5.50;99.90;;;;;;5089435;28;19947;-75
2021/10/18 04:56:44;;;;;;;;;;;5.50;99.90;;;;;;5092930;28;19949;-74
2021/10/18 04:59:10;;;;;;;;;;;5.40;99.90;;;;;;5098898;28;19972;-75
2021/10/18 05:01:37;;;;;;;;;;;5.40;99.90;;;;;;5085491;28;19952;-75
2021/10/18 05:04:05;;;;;;;;;;;5.30;99.90;;;;;;5088581;28;20559;-75
2021/10/18 05:06:32;;;;;;;;;;;5.30;99.90;;;;;;5096888;28;19972;-74
2021/10/18 05:08:58;;;;;;;;;;;5.20;99.90;;;;;;5090463;28;20371;-75
2021/10/18 05:11:25;;;;;;;;;;;5.10;99.90;;;;;;5085290;28;19934;-72
2021/10/18 05:13:52;;;;;;;;;;;5.20;99.90;;;;;;5081944;28;20281;-71
2021/10/18 05:16:18;;;;;;;;;;;5.20;99.90;;;;;;5077816;28;20309;-71
2021/10/18 05:18:45;;;;;;;;;;;5.20;99.90;;;;;;5093362;28;19948;-72
2021/10/18 05:21:13;;;;;;;;;;;5.20;99.90;;;;;;5098460;28;19948;-73
2021/10/18 05:23:40;;;;;;;;;;;5.20;99.90;;;;;;5084259;28;19962;-73
2021/10/18 05:26:06;;;;;;;;;;;5.30;99.90;;;;;;5088418;28;19964;-71
2021/10/18 05:28:33;;;;;;;;;;;5.30;99.90;;;;;;5083908;28;19973;-71
2021/10/18 05:31:00;;;;;;;;;;;5.30;99.90;;;;;;5099959;28;19945;-71
2021/10/18 05:33:26;;;;;;;;;;;5.30;99.90;;;;;;5091434;28;19948;-71
2021/10/18 05:35:53;;;;;;;;;;;5.40;99.90;;;;;;5083948;28;20123;-71
2021/10/18 05:38:21;;;;;;;;;;;5.40;99.90;;;;;;5093137;28;19952;-71
2021/10/18 05:40:48;;;;;;;;;;;5.50;99.90;;;;;;5099378;28;19972;-71
2021/10/18 05:43:15;;;;;;;;;;;5.40;99.90;;;;;;5087417;28;19993;-72
2021/10/18 05:45:41;;;;;;;;;;;5.30;99.90;;;;;;5095157;28;20435;-71
2021/10/18 05:48:08;;;;;;;;;;;5.30;99.90;;;;;;5098817;28;19954;-72
2021/10/18 05:50:36;;;;;;;;;;;5.30;99.90;;;;;;5098801;28;20000;-72
2021/10/18 05:53:03;;;;;;;;;;;5.30;99.90;;;;;;5091937;28;20381;-72
2021/10/18 05:55:31;;;;;;;;;;;5.30;99.90;;;;;;5094385;28;19965;-72
2021/10/18 05:57:58;;;;;;;;;;;5.30;99.90;;;;;;5087071;28;19956;-72
2021/10/18 06:00:26;;;;;;;;;;;5.30;99.90;;;;;;5096860;28;20065;-71
2021/10/18 06:02:53;;;;;;;;;;;5.30;99.90;;;;;;5088152;28;19966;-71
2021/10/18 06:05:20;;;;;;;;;;;5.30;99.90;;;;;;5088001;28;20032;-71
2021/10/18 06:07:47;;;;;;;;;;;5.30;99.90;;;;;;5095572;28;19957;-72
2021/10/18 06:10:14;;;;;;;;;;;5.30;99.90;;;;;;5085901;28;20403;-72
2021/10/18 06:12:42;;;;;;;;;;;5.30;99.90;;;;;;5081289;28;20409;-72
2021/10/18 06:15:09;;;;;;;;;;;5.40;99.90;;;;;;5059778;28;19976;-71
2021/10/18 06:17:36;;;;;;;;;;;5.40;99.90;;;;;;5086485;28;19953;-72
2021/10/18 06:20:03;;;;;;;;;;;5.40;99.90;;;;;;5092776;28;20067;-71
2021/10/18 06:22:30;;;;;;;;;;;5.50;99.90;;;;;;5097657;28;19963;-72
2021/10/18 06:24:57;;;;;;;;;;;5.60;99.90;;;;;;5083328;28;19951;-72
2021/10/18 06:27:24;;;;;;;;;;;5.70;99.90;;;;;;5081722;28;20300;-71
2021/10/18 06:29:52;;;;;;;;;;;5.80;99.90;;;;;;5088171;28;20398;-69
2021/10/18 06:32:19;;;;;;;;;;;5.90;99.90;;;;;;5084529;28;20356;-70
2021/10/18 06:34:45;;;;;;;;;;;6.00;99.90;;;;;;5092371;28;19956;-70
2021/10/18 06:37:12;;;;;;;;;;;6.00;99.90;;;;;;5080557;28;19959;-71
2021/10/18 06:39:39;;;;;;;;;;;6.00;99.90;;;;;;5086484;28;20543;-71
2021/10/18 06:42:05;;;;;;;;;;;6.10;99.90;;;;;;5081551;28;19960;-71
2021/10/18 06:44:32;;;;;;;;;;;6.30;99.90;;;;;;5082804;28;20059;-71
2021/10/18 06:47:00;;;;;;;;;;;6.40;99.90;;;;;;5086719;28;19945;-72
2021/10/18 06:49:27;;;;;;;;;;;6.40;99.90;;;;;;5085230;28;19955;-72
2021/10/18 06:51:55;;;;;;;;;;;6.60;99.90;;;;;;5078930;28;19973;-71
2021/10/18 06:54:22;;;;;;;;;;;6.60;99.90;;;;;;5079721;28;19992;-72
2021/10/18 06:56:49;;;;;;;;;;;6.70;99.90;;;;;;5088300;28;19990;-74
2021/10/18 06:59:16;;;;;;;;;;;6.80;99.90;;;;;;5083823;28;19949;-73
2021/10/18 07:01:43;;;;;;;;;;;6.90;99.90;;;;;;5082767;28;19966;-73
2021/10/18 07:04:12;;;;;;;;;;;6.90;99.90;;;;;;5083299;28;19955;-73
2021/10/18 07:06:39;;;;;;;;;;;6.90;99.90;;;;;;5085831;28;19953;-72
2021/10/18 07:09:06;;;;;;;;;;;6.90;99.90;;;;;;5075495;28;19965;-72
2021/10/18 07:11:32;;;;;;;;;;;6.90;99.90;;;;;;5090453;28;19949;-72
2021/10/18 07:13:59;;;;;;;;;;;6.90;99.90;;;;;;5086580;28;20331;-72
2021/10/18 07:16:26;;;;;;;;;;;7.00;99.90;;;;;;5092790;28;21941;-73
2021/10/18 07:18:52;;;;;;;;;;;7.10;99.90;;;;;;5076517;28;19983;-72
2021/10/18 07:21:20;;;;;;;;;;;7.10;99.90;;;;;;5087626;28;19971;-72
2021/10/18 07:23:51;;;;;;;;;;;7.30;99.90;;;;;;5082056;28;20724;-71
2021/10/18 07:26:18;;;;;;;;;;;7.40;99.90;;;;;;5085861;28;20067;-70
2021/10/18 07:28:45;;;;;;;;;;;7.60;99.90;;;;;;5083751;28;19948;-72
2021/10/18 07:31:11;;;;;;;;;;;7.80;99.90;;;;;;5074131;28;19999;-71
2021/10/18 07:33:38;;;;;;;;;;;8.00;99.90;;;;;;5083218;28;19952;-73
2021/10/18 07:36:08;;;;;;;;;;;8.10;99.90;;;;;;5078612;28;20026;-73
2021/10/18 07:38:37;;;;;;;;;;;8.30;99.90;;;;;;5097122;28;19993;-72
2021/10/18 07:41:04;;;;;;;;;;;8.50;99.90;;;;;;5079276;28;19962;-73
2021/10/18 07:43:31;;;;;;;;;;;8.50;99.90;;;;;;5076656;28;20332;-73
2021/10/18 07:45:57;;;;;;;;;;;8.70;99.90;;;;;;5077311;28;20420;-72
2021/10/18 07:48:24;;;;;;;;;;;8.90;99.90;;;;;;5087106;28;19979;-72
2021/10/18 07:50:51;;;;;;;;;;;9.20;99.90;;;;;;5078539;28;20394;-72
2021/10/18 07:53:17;;;;;;;;;;;9.30;99.90;;;;;;5079269;28;19951;-74
2021/10/18 07:55:45;;;;;;;;;;;9.60;99.90;;;;;;5079104;28;19952;-74
2021/10/18 07:58:12;;;;;;;;;;;9.80;99.90;;;;;;5078498;28;19960;-73
2021/10/18 08:00:38;;;;;;;;;;;10.00;99.90;;;;;;5078938;28;19978;-74
2021/10/18 08:03:05;;;;;;;;;;;10.20;99.90;;;;;;5077593;28;19955;-74
2021/10/18 08:05:32;;;;;;;;;;;10.30;99.90;;;;;;5079171;28;19963;-74
2021/10/18 08:07:59;;;;;;;;;;;10.30;99.90;;;;;;5081473;28;19947;-75
2021/10/18 08:10:26;;;;;;;;;;;10.30;99.90;;;;;;5083032;28;19977;-74
2021/10/18 08:12:55;;;;;;;;;;;10.50;99.90;;;;;;5087720;28;20044;-74
2021/10/18 08:15:21;;;;;;;;;;;10.60;99.90;;;;;;5082852;28;19953;-75
2021/10/18 08:17:48;;;;;;;;;;;10.70;99.90;;;;;;5083088;28;19955;-74
2021/10/18 08:20:15;;;;;;;;;;;10.60;99.90;;;;;;5082733;28;20429;-73
2021/10/18 08:22:42;;;;;;;;;;;10.60;99.90;;;;;;5084171;28;19954;-73
2021/10/18 08:25:08;;;;;;;;;;;10.70;99.90;;;;;;5077882;28;20492;-74
2021/10/18 08:27:37;;;;;;;;;;;10.80;99.90;;;;;;5082770;28;20420;-73
2021/10/18 08:30:05;;;;;;;;;;;10.80;99.90;;;;;;5079576;28;20009;-74
2021/10/18 08:32:32;;;;;;;;;;;10.90;99.90;;;;;;5079741;28;19959;-74
2021/10/18 08:34:59;;;;;;;;;;;10.90;99.90;;;;;;5088045;28;19952;-74
2021/10/18 08:38:15;;;;;;;;;;;11.00;99.90;;;;;;5101868;28;20329;-75
2021/10/18 08:40:12;;;;;;;;;;;11.60;99.90;;;;;;5089501;28;19969;-74
2021/10/18 08:42:54;;;;;;;;;;;13.00;99.90;;;;;;5080155;28;19969;-74
2021/10/18 08:45:22;;;;;;;;;;;14.70;99.90;;;;;;5088166;28;19949;-74
2021/10/18 08:47:50;;;;;;;;;;;16.00;97.20;;;;;;5090105;28;19957;-73
2021/10/18 08:50:16;;;;;;;;;;;16.40;93.40;;;;;;5088817;28;19945;-72
2021/10/18 08:52:43;;;;;;;;;;;15.90;91.80;;;;;;5092646;28;19982;-74
2021/10/18 08:55:10;;;;;;;;;;;15.50;91.70;;;;;;5080476;28;20622;-73
2021/10/18 08:57:37;;;;;;;;;;;14.80;92.90;;;;;;5076874;28;19947;-72
2021/10/18 09:00:04;;;;;;;;;;;15.00;93.50;;;;;;5083766;28;19972;-74
2021/10/18 09:02:40;;;;;;;;;;;14.90;93.00;;;;;;5090573;28;19947;-73
2021/10/18 09:05:07;;;;;;;;;;;14.70;94.10;;;;;;5089783;28;20043;-73
2021/10/18 09:07:38;;;;;;;;;;;14.60;94.10;;;;;;5085780;28;19950;-73
2021/10/18 09:10:10;;;;;;;;;;;14.60;94.40;;;;;;5089977;28;19952;-72
2021/10/18 09:12:39;;;;;;;;;;;14.40;94.40;;;;;;5090653;28;19989;-73
2021/10/18 09:15:18;;;;;;;;;;;14.50;94.90;;;;;;5080418;28;19957;-72
2021/10/18 09:17:46;;;;;;;;;;;14.70;94.80;;;;;;5082950;28;19966;-70
2021/10/18 09:20:23;;;;;;;;;;;14.50;94.50;;;;;;5081721;28;20548;-70
2021/10/18 09:22:49;;;;;;;;;;;14.30;95.00;;;;;;5085137;28;19965;-71
2021/10/18 09:25:31;;;;;;;;;;;14.20;94.90;;;;;;5085682;28;20483;-75
2021/10/18 09:28:07;;;;;;;;;;;14.20;95.20;;;;;;5088771;28;20325;-74
2021/10/18 09:30:37;;;;;;;;;;;14.30;95.40;;;;;;5086051;28;20039;-73
2021/10/18 09:33:13;;;;;;;;;;;14.40;95.00;;;;;;5083827;28;20326;-75
2021/10/18 09:35:40;;;;;;;;;;;14.40;95.40;;;;;;5098003;28;20014;-74
2021/10/18 09:38:09;;;;;;;;;;;14.40;95.60;;;;;;5079046;28;19950;-73
2021/10/18 09:40:38;;;;;;;;;;;14.60;95.40;;;;;;5092111;28;19966;-74
2021/10/18 09:43:08;;;;;;;;;;;14.60;95.30;;;;;;5090106;28;19948;-73
2021/10/18 09:45:35;;;;;;;;;;;14.70;95.30;;;;;;5089161;28;19949;-74
2021/10/18 10:52:57;;;;;;;;;;;15.60;94.50;;;;;;5078468;28;19969;-72
2021/10/18 10:55:25;;;;;;;;;;;15.50;94.00;;;;;;5032429;28;19947;-72
2021/10/18 10:57:54;;;;;;;;;;;15.60;94.40;;;;;;5083662;28;19946;-72
2021/10/18 11:00:34;;;;;;;;;;;15.80;94.10;;;;;;5067796;28;19960;-72
2021/10/18 11:03:19;;;;;;;;;;;15.80;94.00;;;;;;5077384;28;19952;-72
2021/10/18 11:05:55;;;;;;;;;;;15.90;94.30;;;;;;5082379;28;19983;-70
2021/10/18 11:08:29;;;;;;;;;;;15.90;94.50;;;;;;5078348;28;20304;-72
2021/10/18 11:10:56;;;;;;;;;;;15.90;94.30;;;;;;5090203;28;19993;-73
2021/10/18 11:13:24;;;;;;;;;;;15.90;94.60;;;;;;5088805;28;19956;-72
2021/10/18 11:15:50;;;;;;;;;;;15.90;94.30;;;;;;5078932;28;20031;-72
2021/10/18 11:18:24;;;;;;;;;;;15.90;94.40;;;;;;5080168;28;20057;-72
2021/10/18 11:20:50;;;;;;;;;;;15.80;94.60;;;;;;5085615;28;19965;-71
2021/10/18 11:23:17;;;;;;;;;;;15.90;94.80;;;;;;5081169;28;19950;-72
2021/10/18 11:25:45;;;;;;;;;;;15.90;94.90;;;;;;5079841;28;20340;-73
2021/10/18 11:28:12;;;;;;;;;;;16.00;95.20;;;;;;5089961;28;19951;-73
2021/10/18 11:30:41;;;;;;;;;;;16.00;95.00;;;;;;5083428;28;20038;-72
2021/10/18 11:33:09;;;;;;;;;;;16.00;95.00;;;;;;5080208;28;19948;-72
2021/10/18 11:35:36;;;;;;;;;;;16.00;95.10;;;;;;5082389;28;20083;-72
2021/10/18 11:38:03;;;;;;;;;;;15.90;95.40;;;;;;5089083;28;19947;-72
2021/10/18 11:40:31;;;;;;;;;;;16.00;95.70;;;;;;5091393;28;19951;-73
2021/10/18 11:42:59;;;;;;;;;;;16.20;95.50;;;;;;5088323;28;20026;-73
2021/10/18 11:45:26;;;;;;;;;;;16.10;95.50;;;;;;5087623;28;19949;-72
2021/10/18 11:48:02;;;;;;;;;;;16.10;95.90;;;;;;5095782;28;19963;-73
2021/10/18 11:50:29;;;;;;;;;;;16.20;95.80;;;;;;5089373;28;19945;-74
2021/10/18 11:52:57;;;;;;;;;;;16.30;95.90;;;;;;5089782;28;20036;-75
2021/10/18 11:55:25;;;;;;;;;;;16.30;95.60;;;;;;5088848;28;19954;-76
2021/10/18 11:57:53;;;;;;;;;;;16.30;95.80;;;;;;5084045;28;20041;-73
2021/10/18 12:00:21;;;;;;;;;;;16.30;96.00;;;;;;5089881;28;19985;-73
2021/10/18 12:02:48;;;;;;;;;;;16.40;96.30;;;;;;5091876;28;19965;-74
2021/10/18 12:05:17;;;;;;;;;;;16.50;96.10;;;;;;5088589;28;19972;-74
2021/10/18 12:07:44;;;;;;;;;;;16.50;95.80;;;;;;5085018;28;20151;-73
2021/10/18 12:10:12;;;;;;;;;;;16.40;96.00;;;;;;5068389;28;19955;-76
2021/10/18 12:12:39;;;;;;;;;;;16.70;96.00;;;;;;5084110;28;19950;-77
2021/10/18 12:15:06;;;;;;;;;;;16.70;96.20;;;;;;5087812;28;20054;-76
2021/10/18 12:17:34;;;;;;;;;;;16.90;96.10;;;;;;5084331;28;19946;-74
2021/10/18 12:20:01;;;;;;;;;;;17.20;95.80;;;;;;5081267;28;20037;-74
2021/10/18 12:22:29;;;;;;;;;;;17.40;95.40;;;;;;5078771;28;19983;-74
2021/10/18 12:25:00;;;;;;;;;;;17.50;94.40;;;;;;5080262;28;20417;-73
2021/10/18 12:27:27;;;;;;;;;;;17.30;94.60;;;;;;5083008;28;19944;-75
2021/10/18 12:29:53;;;;;;;;;;;17.10;95.20;;;;;;5088476;28;19952;-74
2021/10/18 12:32:20;;;;;;;;;;;17.10;95.30;;;;;;5095691;28;19943;-73
2021/10/18 12:34:47;;;;;;;;;;;17.10;95.50;;;;;;5079078;28;19947;-73
2021/10/18 12:37:15;;;;;;;;;;;17.20;95.50;;;;;;5089798;28;20428;-74
2021/10/18 12:39:45;;;;;;;;;;;17.30;95.40;;;;;;5086851;28;19962;-74
2021/10/18 12:42:12;;;;;;;;;;;17.30;95.20;;;;;;5087167;28;20047;-75
2021/10/18 12:44:40;;;;;;;;;;;17.30;95.20;;;;;;5083322;28;20383;-74
2021/10/18 12:47:15;;;;;;;;;;;17.40;95.10;;;;;;5088715;28;19940;-73
2021/10/18 12:49:42;;;;;;;;;;;17.40;95.20;;;;;;5088662;28;19948;-75
2021/10/18 12:52:09;;;;;;;;;;;17.40;95.10;;;;;;5088021;28;20044;-75
2021/10/18 12:54:40;;;;;;;;;;;17.40;95.30;;;;;;5077133;28;19954;-74
2021/10/18 12:57:08;;;;;;;;;;;17.30;95.40;;;;;;5087188;28;19953;-75
2021/10/18 12:59:36;;;;;;;;;;;17.30;95.40;;;;;;5082933;28;20267;-76
2021/10/18 13:02:23;;;;;;;;;;;17.30;95.70;;;;;;5079203;28;20481;-78
2021/10/18 13:05:09;;;;;;;;;;;17.40;95.30;;;;;;5094929;28;20469;-76
2021/10/18 13:07:36;;;;;;;;;;;17.40;95.50;;;;;;5090658;28;20039;-77
2021/10/18 13:10:04;;;;;;;;;;;17.50;95.70;;;;;;5086119;28;20060;-74
2021/10/18 13:12:32;;;;;;;;;;;17.40;95.50;;;;;;5090947;28;19945;-75
2021/10/18 13:14:58;;;;;;;;;;;17.20;95.60;;;;;;5080069;28;19967;-76
2021/10/18 13:17:26;;;;;;;;;;;17.20;96.00;;;;;;5090516;28;20390;-75
2021/10/18 13:19:52;;;;;;;;;;;17.10;96.10;;;;;;5090062;28;19958;-74
2021/10/18 13:22:20;;;;;;;;;;;17.00;96.30;;;;;;5084679;28;20456;-76
2021/10/18 13:24:46;;;;;;;;;;;16.90;96.60;;;;;;5079673;28;19945;-75
2021/10/18 13:27:13;;;;;;;;;;;16.80;96.90;;;;;;5087663;28;19955;-75
2021/10/18 13:29:41;;;;;;;;;;;16.90;97.10;;;;;;5083228;28;20033;-75
2021/10/18 13:32:08;;;;;;;;;;;16.90;97.10;;;;;;5089701;28;19950;-76
2021/10/18 13:34:35;;;;;;;;;;;17.00;97.60;;;;;;5087442;28;19945;-76
2021/10/18 13:37:02;;;;;;;;;;;17.00;97.00;;;;;;5082053;28;19950;-79
2021/10/18 13:39:29;;;;;;;;;;;17.20;97.20;;;;;;5093607;28;20355;-76
2021/10/18 13:41:55;;;;;;;;;;;17.30;97.00;;;;;;5090697;28;19967;-75
2021/10/18 13:44:22;;;;;;;;;;;17.40;96.80;;;;;;5079417;28;20317;-77
2021/10/18 13:46:51;;;;;;;;;;;17.30;96.70;;;;;;5080550;28;19948;-77
2021/10/18 13:49:17;;;;;;;;;;;17.30;96.90;;;;;;5091851;28;19946;-75
2021/10/18 13:51:44;;;;;;;;;;;17.40;96.60;;;;;;5092771;28;19963;-76
2021/10/18 13:54:11;;;;;;;;;;;17.40;96.50;;;;;;5083862;28;19981;-75
2021/10/18 13:56:38;;;;;;;;;;;17.30;96.70;;;;;;5085133;28;19962;-75
2021/10/18 13:59:05;;;;;;;;;;;17.30;96.80;;;;;;5081038;28;20382;-77
2021/10/18 14:01:32;;;;;;;;;;;17.40;96.90;;;;;;5090793;28;19959;-77
2021/10/18 14:04:00;;;;;;;;;;;17.40;96.90;;;;;;5083433;28;20430;-75
2021/10/18 14:06:27;;;;;;;;;;;17.30;97.00;;;;;;5084754;28;19963;-75
2021/10/18 14:08:54;;;;;;;;;;;17.30;97.10;;;;;;5095502;28;19945;-75
2021/10/18 14:11:21;;;;;;;;;;;17.30;97.30;;;;;;5087084;28;19947;-75
2021/10/18 14:13:47;;;;;;;;;;;17.30;97.50;;;;;;5091489;28;19951;-76
2021/10/18 14:16:14;;;;;;;;;;;17.20;97.50;;;;;;5081079;28;19962;-74
2021/10/18 14:18:41;;;;;;;;;;;17.20;97.70;;;;;;5093520;28;19953;-75
2021/10/18 14:21:09;;;;;;;;;;;17.20;98.00;;;;;;5092214;28;19954;-74
2021/10/18 14:23:36;;;;;;;;;;;17.20;98.10;;;;;;5085278;28;20053;-75
2021/10/18 14:26:02;;;;;;;;;;;17.30;98.20;;;;;;5080362;28;19946;-75
2021/10/18 14:28:29;;;;;;;;;;;17.30;98.00;;;;;;5084659;28;20038;-73
2021/10/18 14:30:56;;;;;;;;;;;17.30;97.90;;;;;;5085766;28;19947;-74
2021/10/18 14:33:23;;;;;;;;;;;17.20;98.10;;;;;;5090799;28;19948;-74
2021/10/18 14:35:50;;;;;;;;;;;17.20;98.30;;;;;;5088351;28;20001;-75
2021/10/18 14:38:18;;;;;;;;;;;17.20;98.40;;;;;;5085682;28;19954;-74
2021/10/18 14:40:47;;;;;;;;;;;17.20;98.50;;;;;;5096675;28;19954;-74
2021/10/18 14:43:13;;;;;;;;;;;17.20;98.40;;;;;;5094401;28;20058;-72
2021/10/18 14:45:40;;;;;;;;;;;17.20;98.60;;;;;;5087345;28;19977;-73
2021/10/18 14:48:07;;;;;;;;;;;17.30;98.60;;;;;;5082276;28;19996;-74
2021/10/18 14:50:34;;;;;;;;;;;17.40;98.50;;;;;;5086019;28;22442;-73
2021/10/18 14:53:00;;;;;;;;;;;17.40;98.60;;;;;;5088534;28;19997;-75
2021/10/18 14:55:28;;;;;;;;;;;17.50;98.40;;;;;;5080248;28;20023;-73
2021/10/18 14:57:55;;;;;;;;;;;17.40;98.40;;;;;;5080354;28;19956;-72
2021/10/18 15:00:22;;;;;;;;;;;17.40;98.40;;;;;;5087445;28;19948;-74
2021/10/18 15:02:48;;;;;;;;;;;17.30;98.50;;;;;;5078614;28;19958;-75
2021/10/18 15:05:15;;;;;;;;;;;17.30;98.70;;;;;;5087784;28;19999;-74
2021/10/18 15:07:43;;;;;;;;;;;17.30;98.80;;;;;;5075190;28;19993;-73
2021/10/18 15:10:10;;;;;;;;;;;17.30;98.70;;;;;;5089086;28;20038;-73
2021/10/18 15:12:38;;;;;;;;;;;17.30;98.80;;;;;;5089704;28;19952;-73
2021/10/18 15:15:05;;;;;;;;;;;17.20;98.90;;;;;;5088643;28;19940;-73
2021/10/18 15:17:32;;;;;;;;;;;17.20;98.90;;;;;;5083800;28;19976;-74
2021/10/18 15:19:59;;;;;;;;;;;17.20;99.00;;;;;;5074373;28;19976;-74
2021/10/18 15:22:25;;;;;;;;;;;17.10;99.20;;;;;;5092707;28;19976;-73
2021/10/18 15:24:52;;;;;;;;;;;17.00;99.30;;;;;;5090743;28;20050;-73
2021/10/18 15:27:19;;;;;;;;;;;17.00;99.40;;;;;;5090958;28;20481;-74
2021/10/18 15:29:49;;;;;;;;;;;16.90;99.40;;;;;;5092601;28;19948;-73